Time;durP1;ratioP1;P1;durP2;ratioP2;P2;SDS_P1;SDS_P2;PMS_P1;PMS_P2;Temp;Humidity;BMP_temperature;BMP_pressure;BME280_temperature;BME280_humidity;BME280_pressure;Samples;Min_cycle;Max_cycle;Signal;HPM_P1;HPM_P2
2021/09/21 00:01:21;;;;;;;0.30;0.20;;;11.30;99.90;;;;;;4994197;28;20521;-67
2021/09/21 00:03:47;;;;;;;0.30;0.20;;;11.10;99.90;;;;;;4993303;28;20430;-64
2021/09/21 00:06:13;;;;;;;0.63;0.57;;;11.00;99.90;;;;;;4994635;28;20312;-64
2021/09/21 00:08:39;;;;;;;0.30;0.20;;;11.10;99.90;;;;;;4992892;28;20202;-65
2021/09/21 00:11:05;;;;;;;0.30;0.20;;;11.10;99.90;;;;;;4994360;28;20522;-64
2021/09/21 00:13:32;;;;;;;0.30;0.20;;;11.10;99.90;;;;;;4994908;28;20473;-64
2021/09/21 00:15:58;;;;;;;0.65;0.65;;;11.30;99.90;;;;;;4996830;28;20256;-63
2021/09/21 00:18:24;;;;;;;0.30;0.20;;;11.40;99.90;;;;;;4997543;28;20253;-63
2021/09/21 00:20:50;;;;;;;0.50;0.50;;;11.30;99.90;;;;;;4997599;28;20188;-64
2021/09/21 00:23:15;;;;;;;0.40;0.40;;;11.30;99.90;;;;;;4997621;28;20179;-64
2021/09/21 00:25:41;;;;;;;0.30;0.20;;;11.10;99.90;;;;;;4997542;28;20542;-64
2021/09/21 00:28:07;;;;;;;1.60;0.50;;;10.80;99.90;;;;;;4997390;28;20190;-64
2021/09/21 00:30:32;;;;;;;0.40;0.30;;;10.60;99.90;;;;;;4996383;28;20193;-64
2021/09/21 00:33:02;;;;;;;0.30;0.17;;;10.50;99.90;;;;;;4997286;28;20207;-64
2021/09/21 00:35:30;;;;;;;0.85;0.85;;;10.40;99.90;;;;;;4997273;28;20181;-64
2021/09/21 00:37:55;;;;;;;0.30;0.20;;;10.30;99.90;;;;;;4997138;28;20639;-63
2021/09/21 00:40:21;;;;;;;0.80;0.77;;;10.30;99.90;;;;;;4997085;28;20206;-64
2021/09/21 00:42:46;;;;;;;0.50;0.50;;;10.40;99.90;;;;;;4997297;28;20191;-64
2021/09/21 00:45:24;;;;;;;0.40;0.20;;;10.30;99.90;;;;;;4997116;28;20183;-63
2021/09/21 00:47:50;;;;;;;0.30;0.20;;;10.40;99.90;;;;;;4996908;28;20182;-63
2021/09/21 00:50:19;;;;;;;0.30;0.20;;;10.30;99.90;;;;;;4996746;28;20210;-60
2021/09/21 00:52:45;;;;;;;0.30;0.20;;;10.20;99.90;;;;;;4997155;28;20183;-61
2021/09/21 00:55:12;;;;;;;0.40;0.30;;;10.10;99.90;;;;;;4997094;28;20551;-61
2021/09/21 00:57:37;;;;;;;0.30;0.20;;;10.10;99.90;;;;;;4996724;28;20183;-61
2021/09/21 01:00:06;;;;;;;1.03;1.00;;;10.10;99.90;;;;;;4996667;28;20499;-61
2021/09/21 01:02:31;;;;;;;0.75;0.50;;;10.20;99.90;;;;;;4996706;28;20245;-61
2021/09/21 01:04:57;;;;;;;1.30;1.20;;;10.40;99.90;;;;;;4995757;28;20202;-61
2021/09/21 01:07:23;;;;;;;0.93;0.93;;;10.40;99.90;;;;;;4996704;28;20503;-61
2021/09/21 01:09:48;;;;;;;0.30;0.20;;;10.30;99.90;;;;;;4996670;28;20179;-61
2021/09/21 01:12:14;;;;;;;0.30;0.20;;;10.40;99.90;;;;;;4996693;28;20183;-61
2021/09/21 01:14:39;;;;;;;0.40;0.33;;;10.50;99.90;;;;;;4995711;28;20185;-63
2021/09/21 01:17:05;;;;;;;2.00;1.53;;;10.60;99.90;;;;;;4995538;28;20183;-63
2021/09/21 01:19:30;;;;;;;0.30;0.20;;;10.60;99.90;;;;;;4996408;28;20542;-63
2021/09/21 01:21:56;;;;;;;0.87;0.87;;;10.90;99.90;;;;;;4996509;28;20523;-62
2021/09/21 01:24:22;;;;;;;0.37;0.30;;;10.90;99.90;;;;;;4996362;28;20203;-62
2021/09/21 01:26:48;;;;;;;0.30;0.20;;;10.90;99.90;;;;;;4995486;28;20202;-63
2021/09/21 01:29:14;;;;;;;0.30;0.20;;;11.00;99.90;;;;;;4995252;28;20553;-64
2021/09/21 01:31:41;;;;;;;0.40;0.38;;;11.00;99.90;;;;;;4996466;28;20520;-63
2021/09/21 01:34:07;;;;;;;0.30;0.20;;;11.10;99.90;;;;;;4996287;28;20687;-63
2021/09/21 01:36:33;;;;;;;0.30;0.20;;;11.10;99.90;;;;;;4996333;28;20265;-63
2021/09/21 01:38:59;;;;;;;0.30;0.10;;;11.20;99.90;;;;;;4996073;28;20226;-63
2021/09/21 01:41:25;;;;;;;0.30;0.17;;;11.30;99.90;;;;;;4996144;28;20586;-63
2021/09/21 01:43:51;;;;;;;0.30;0.20;;;11.70;99.90;;;;;;4996080;28;20221;-63
2021/09/21 01:46:20;;;;;;;0.73;0.73;;;11.60;99.90;;;;;;4996437;28;20255;-64
2021/09/21 01:48:46;;;;;;;0.30;0.20;;;11.70;99.90;;;;;;4995686;28;20441;-65
2021/09/21 01:51:18;;;;;;;0.30;0.20;;;11.90;99.90;;;;;;4995984;28;20601;-66
2021/09/21 01:54:09;;;;;;;0.30;0.20;;;11.80;99.90;;;;;;4996191;28;20191;-66
2021/09/21 01:59:19;;;;;;;0.65;0.65;;;11.90;99.90;;;;;;4995748;28;20194;-67
2021/09/21 02:01:44;;;;;;;0.30;0.10;;;11.80;99.90;;;;;;4995733;28;20190;-66
2021/09/21 02:04:10;;;;;;;0.30;0.20;;;11.70;99.90;;;;;;4994610;28;20535;-66
2021/09/21 02:06:41;;;;;;;0.30;0.20;;;11.80;99.90;;;;;;4994642;28;20183;-64
2021/09/21 02:09:09;;;;;;;0.30;0.20;;;12.00;99.90;;;;;;4994677;28;20241;-63
2021/09/21 02:11:35;;;;;;;0.30;0.20;;;12.20;99.90;;;;;;4995629;28;20182;-63
2021/09/21 02:14:01;;;;;;;0.30;0.20;;;12.40;99.90;;;;;;4997047;28;20623;-67
2021/09/21 02:16:29;;;;;;;0.40;0.20;;;12.60;99.90;;;;;;4995826;28;20194;-65
2021/09/21 02:18:56;;;;;;;0.30;0.20;;;12.60;67.00;;;;;;4995339;28;20193;-65
2021/09/21 02:21:22;;;;;;;0.30;0.20;;;12.70;58.00;;;;;;4995530;28;20628;-65
2021/09/21 02:23:50;;;;;;;0.30;0.20;;;12.70;32.00;;;;;;4995338;28;20207;-64
2021/09/21 02:26:16;;;;;;;0.30;0.20;;;12.80;24.10;;;;;;4995010;28;20210;-65
2021/09/21 02:28:41;;;;;;;0.50;0.50;;;12.90;1.00;;;;;;4995131;28;20699;-63
2021/09/21 02:31:07;;;;;;;0.30;0.20;;;12.80;1.00;;;;;;4995102;28;20245;-63
2021/09/21 02:33:32;;;;;;;0.30;0.20;;;12.70;1.00;;;;;;4995196;28;20206;-64
2021/09/21 02:35:58;;;;;;;0.30;0.20;;;12.70;1.00;;;;;;4995335;28;20197;-63
2021/09/21 02:38:24;;;;;;;0.30;0.20;;;12.60;5.00;;;;;;4993977;28;20249;-63
2021/09/21 02:40:50;;;;;;;1.95;0.45;;;12.40;8.80;;;;;;4994950;28;20194;-65
2021/09/21 02:43:16;;;;;;;0.30;0.20;;;12.60;44.00;;;;;;4994886;28;20280;-64
2021/09/21 02:45:42;;;;;;;0.30;0.10;;;12.60;17.30;;;;;;4995005;28;20186;-66
2021/09/21 02:48:07;;;;;;;0.30;0.10;;;12.50;33.40;;;;;;4994716;28;20179;-66
2021/09/21 02:50:33;;;;;;;0.30;0.20;;;12.60;61.30;;;;;;4994708;28;20194;-66
2021/09/21 02:52:59;;;;;;;0.30;0.20;;;12.90;8.10;;;;;;4994843;28;20186;-66
2021/09/21 02:55:25;;;;;;;0.30;0.20;;;13.00;1.00;;;;;;4994023;28;20252;-66
2021/09/21 02:57:51;;;;;;;0.87;0.87;;;13.00;1.00;;;;;;4993938;28;20624;-67
2021/09/21 03:00:22;;;;;;;0.30;0.20;;;12.90;1.00;;;;;;4995280;28;20617;-66
2021/09/21 03:02:47;;;;;;;0.30;0.20;;;12.50;1.00;;;;;;4994721;28;20218;-66
2021/09/21 03:05:18;;;;;;;0.30;0.20;;;12.30;99.90;;;;;;4993762;28;20182;-67
2021/09/21 03:07:47;;;;;;;0.30;0.20;;;12.30;99.90;;;;;;4994617;28;20326;-64
2021/09/21 03:18:23;;;;;;;0.30;0.20;;;11.70;99.90;;;;;;4994241;28;20654;-65
2021/09/21 03:20:48;;;;;;;0.40;0.23;;;11.60;99.90;;;;;;4994402;28;20214;-63
2021/09/21 03:23:14;;;;;;;2.23;1.60;;;11.60;99.90;;;;;;4994552;28;20599;-64
2021/09/21 03:25:39;;;;;;;0.40;0.30;;;11.50;99.90;;;;;;4994441;28;20183;-64
2021/09/21 03:28:06;;;;;;;0.73;0.73;;;11.40;99.90;;;;;;4994508;28;20345;-64
2021/09/21 03:30:32;;;;;;;0.77;0.77;;;11.30;99.90;;;;;;4993656;28;20186;-64
2021/09/21 03:32:57;;;;;;;0.30;0.17;;;11.20;99.90;;;;;;4994098;28;20186;-64
2021/09/21 03:35:23;;;;;;;0.30;0.20;;;11.30;99.90;;;;;;4994175;28;20495;-64
2021/09/21 03:37:48;;;;;;;0.50;0.50;;;11.40;99.90;;;;;;4994402;28;20189;-65
2021/09/21 03:40:14;;;;;;;0.83;0.83;;;11.40;99.90;;;;;;4994052;28;20179;-65
2021/09/21 03:42:40;;;;;;;0.30;0.20;;;11.40;99.90;;;;;;4994318;28;20643;-64
2021/09/21 03:45:06;;;;;;;0.30;0.20;;;11.40;99.90;;;;;;4994121;28;20437;-65
2021/09/21 03:47:32;;;;;;;1.40;1.33;;;11.50;99.90;;;;;;4993974;28;20175;-64
2021/09/21 03:49:57;;;;;;;0.30;0.20;;;11.80;99.90;;;;;;4997182;28;20480;-64
2021/09/21 03:52:23;;;;;;;0.30;0.13;;;11.80;99.90;;;;;;4998277;28;20190;-66
2021/09/21 03:54:49;;;;;;;0.30;0.10;;;11.90;99.90;;;;;;4998128;28;20178;-66
2021/09/21 03:57:14;;;;;;;0.30;0.20;;;12.00;99.90;;;;;;4998437;28;20433;-66
2021/09/21 03:59:40;;;;;;;0.30;0.20;;;11.80;99.90;;;;;;4997975;28;20613;-66
2021/09/21 04:02:06;;;;;;;3.07;2.57;;;12.00;99.90;;;;;;4996830;28;20604;-63
2021/09/21 04:04:31;;;;;;;0.30;0.20;;;12.10;99.90;;;;;;4997736;28;20210;-63
2021/09/21 04:06:57;;;;;;;0.30;0.20;;;12.20;99.90;;;;;;4997788;28;20183;-63
2021/09/21 04:09:22;;;;;;;0.30;0.20;;;12.50;99.90;;;;;;4997615;28;20179;-63
2021/09/21 04:11:48;;;;;;;0.93;0.93;;;12.60;99.90;;;;;;4997725;28;20234;-63
2021/09/21 04:14:13;;;;;;;0.30;0.20;;;12.90;34.00;;;;;;4997907;28;20325;-63
2021/09/21 04:16:39;;;;;;;0.30;0.10;;;12.80;1.00;;;;;;4998181;28;20255;-63
2021/09/21 04:19:04;;;;;;;0.30;0.20;;;13.00;1.00;;;;;;4997473;28;20277;-63
2021/09/21 04:21:30;;;;;;;0.30;0.20;;;12.90;1.00;;;;;;4997632;28;20191;-63
2021/09/21 04:23:55;;;;;;;0.30;0.20;;;13.00;1.00;;;;;;4997519;28;20224;-63
2021/09/21 04:26:21;;;;;;;0.30;0.10;;;13.10;1.00;;;;;;4997614;28;20186;-63
2021/09/21 04:28:47;;;;;;;0.30;0.10;;;13.20;1.00;;;;;;4997613;28;20187;-63
2021/09/21 04:31:17;;;;;;;0.30;0.20;;;13.20;1.00;;;;;;4997646;28;20179;-63
2021/09/21 04:33:43;;;;;;;0.30;0.20;;;13.20;1.00;;;;;;4997483;28;20190;-64
2021/09/21 04:36:11;;;;;;;0.30;0.20;;;13.20;1.00;;;;;;4997582;28;20209;-66
2021/09/21 04:38:37;;;;;;;0.30;0.20;;;13.30;1.00;;;;;;4997131;28;20183;-65
2021/09/21 04:41:05;;;;;;;0.40;0.30;;;13.20;1.00;;;;;;4997345;28;20190;-67
2021/09/21 04:43:32;;;;;;;0.30;0.20;;;13.20;1.00;;;;;;4997214;28;20203;-65
2021/09/21 04:45:58;;;;;;;0.30;0.20;;;13.20;1.00;;;;;;4997231;28;20272;-66
2021/09/21 04:48:23;;;;;;;0.30;0.17;;;13.40;1.00;;;;;;4996911;28;20234;-64
2021/09/21 04:50:50;;;;;;;0.30;0.10;;;13.40;1.00;;;;;;4998018;28;20432;-64
2021/09/21 04:53:15;;;;;;;0.30;0.10;;;13.30;1.00;;;;;;4997513;28;20672;-64
2021/09/21 04:55:41;;;;;;;0.30;0.10;;;13.30;1.00;;;;;;4997383;28;20206;-65
2021/09/21 04:58:07;;;;;;;0.30;0.20;;;13.40;1.00;;;;;;4996182;28;20191;-65
2021/09/21 05:00:32;;;;;;;0.30;0.20;;;13.40;1.00;;;;;;4996577;28;20183;-66
2021/09/21 05:02:58;;;;;;;0.30;0.20;;;13.50;1.00;;;;;;4997411;28;20466;-64
2021/09/21 05:05:24;;;;;;;0.30;0.10;;;13.50;1.00;;;;;;4996212;28;20257;-64
2021/09/21 05:07:49;;;;;;;0.30;0.17;;;13.60;1.00;;;;;;4996116;28;20257;-64
2021/09/21 05:10:16;;;;;;;0.30;0.20;;;13.60;1.00;;;;;;4996730;28;20562;-64
2021/09/21 05:12:42;;;;;;;0.30;0.10;;;13.60;1.00;;;;;;4996783;28;20174;-65
2021/09/21 05:15:08;;;;;;;0.30;0.20;;;13.60;99.90;;;;;;4996421;28;20194;-66
2021/09/21 05:17:34;;;;;;;0.30;0.20;;;13.30;99.90;;;;;;4996646;28;20179;-67
2021/09/21 05:20:00;;;;;;;0.30;0.20;;;13.30;1.00;;;;;;4996656;28;20186;-63
2021/09/21 05:22:25;;;;;;;0.30;0.10;;;13.50;1.00;;;;;;4995738;28;20448;-66
2021/09/21 05:24:51;;;;;;;0.30;0.20;;;13.60;1.00;;;;;;4995900;28;20512;-64
2021/09/21 05:27:17;;;;;;;0.30;0.20;;;13.80;99.90;;;;;;4996740;28;20197;-65
2021/09/21 05:29:43;;;;;;;0.30;0.10;;;13.70;99.90;;;;;;4996191;28;20322;-65
2021/09/21 05:32:09;;;;;;;0.30;0.10;;;13.70;99.90;;;;;;4995463;28;20440;-65
2021/09/21 05:34:34;;;;;;;0.30;0.10;;;13.80;99.90;;;;;;4996105;28;20187;-65
2021/09/21 05:37:00;;;;;;;0.30;0.20;;;13.90;99.90;;;;;;4995989;28;20187;-65
2021/09/21 05:39:26;;;;;;;0.40;0.20;;;14.00;99.90;;;;;;4995778;28;20249;-65
2021/09/21 05:41:51;;;;;;;0.30;0.13;;;14.10;99.90;;;;;;4995374;28;20202;-64
2021/09/21 05:44:17;;;;;;;0.30;0.20;;;14.00;99.90;;;;;;4996062;28;20217;-66
2021/09/21 05:46:43;;;;;;;0.30;0.20;;;14.10;99.90;;;;;;4995234;28;20575;-65
2021/09/21 05:49:08;;;;;;;0.30;0.17;;;14.20;99.90;;;;;;4995618;28;20234;-68
2021/09/21 05:51:34;;;;;;;0.30;0.17;;;14.10;99.90;;;;;;4996646;28;20510;-66
2021/09/21 05:53:59;;;;;;;0.30;0.17;;;14.10;59.60;;;;;;4997264;28;20206;-65
2021/09/21 05:56:25;;;;;;;0.30;0.20;;;14.00;1.00;;;;;;4995737;28;20241;-65
2021/09/21 05:58:51;;;;;;;0.30;0.20;;;14.00;1.00;;;;;;4994408;28;20183;-65
2021/09/21 06:01:16;;;;;;;0.30;0.20;;;14.00;1.00;;;;;;4995742;28;20191;-66
2021/09/21 06:03:42;;;;;;;0.37;0.20;;;14.10;1.00;;;;;;4995207;28;20287;-66
2021/09/21 06:06:08;;;;;;;0.30;0.20;;;14.20;1.00;;;;;;4995346;28;20193;-68
2021/09/21 06:08:33;;;;;;;0.30;0.20;;;14.30;1.00;;;;;;4995228;28;20237;-68
2021/09/21 06:10:59;;;;;;;0.30;0.20;;;14.50;1.00;;;;;;4995017;28;20237;-68
2021/09/21 06:13:25;;;;;;;0.40;0.30;;;14.30;1.00;;;;;;4995323;28;20190;-68
2021/09/21 06:15:51;;;;;;;0.30;0.20;;;14.30;1.00;;;;;;4995218;28;20521;-68
2021/09/21 06:18:18;;;;;;;0.40;0.27;;;14.60;99.90;;;;;;4995404;28;20187;-68
2021/09/21 06:20:45;;;;;;;0.30;0.20;;;14.60;1.00;;;;;;4995374;28;20371;-68
2021/09/21 06:23:11;;;;;;;0.40;0.20;;;14.70;81.90;;;;;;4995250;28;20245;-68
2021/09/21 06:25:41;;;;;;;0.30;0.20;;;14.70;99.90;;;;;;4995300;28;20509;-69
2021/09/21 06:28:06;;;;;;;0.30;0.20;;;14.80;1.00;;;;;;4995047;28;20656;-68
2021/09/21 06:30:33;;;;;;;0.70;0.70;;;14.70;1.00;;;;;;4995192;28;20652;-69
2021/09/21 06:32:58;;;;;;;0.40;0.20;;;14.70;1.00;;;;;;4995128;28;20487;-68
2021/09/21 06:35:25;;;;;;;0.30;0.10;;;14.30;1.00;;;;;;4995074;28;20592;-68
2021/09/21 06:37:50;;;;;;;0.30;0.20;;;14.30;47.20;;;;;;4994992;28;20737;-68
2021/09/21 06:40:17;;;;;;;0.40;0.17;;;14.50;99.90;;;;;;4994735;28;20237;-68
2021/09/21 06:42:42;;;;;;;0.85;0.85;;;14.80;1.00;;;;;;4994579;28;20282;-68
2021/09/21 06:45:11;;;;;;;0.63;0.63;;;14.80;1.00;;;;;;4994894;28;20202;-68
2021/09/21 06:47:37;;;;;;;0.32;0.17;;;14.60;1.00;;;;;;4994722;28;20170;-68
2021/09/21 06:50:04;;;;;;;0.37;0.20;;;14.50;1.00;;;;;;4994575;28;20276;-68
2021/09/21 06:52:30;;;;;;;0.30;0.20;;;14.50;1.00;;;;;;4994471;28;20981;-68
2021/09/21 06:54:56;;;;;;;0.40;0.10;;;14.50;1.00;;;;;;4994477;28;20532;-68
2021/09/21 06:57:22;;;;;;;0.40;0.20;;;14.50;1.00;;;;;;4994555;28;20202;-68
2021/09/21 06:59:48;;;;;;;0.40;0.20;;;14.20;1.00;;;;;;4994449;28;20266;-68
2021/09/21 07:02:14;;;;;;;0.40;0.20;;;14.30;99.90;;;;;;4995198;28;20203;-68
2021/09/21 07:04:39;;;;;;;0.47;0.40;;;14.50;32.00;;;;;;4993822;28;20213;-65
2021/09/21 07:07:05;;;;;;;0.40;0.20;;;14.40;99.90;;;;;;4993652;28;20201;-65
2021/09/21 07:09:31;;;;;;;0.40;0.40;;;14.30;1.00;;;;;;4989787;28;20454;-65
2021/09/21 07:11:56;;;;;;;0.30;0.20;;;14.10;1.00;;;;;;4994313;28;20438;-65
2021/09/21 07:14:22;;;;;;;0.30;0.20;;;14.20;99.90;;;;;;4994321;28;20183;-65
2021/09/21 07:16:48;;;;;;;2.00;1.90;;;14.70;1.00;;;;;;4994325;28;20179;-65
2021/09/21 07:19:15;;;;;;;0.40;0.20;;;15.00;1.00;;;;;;4993926;28;20348;-65
2021/09/21 07:21:41;;;;;;;0.40;0.30;;;14.90;1.00;;;;;;4994339;28;20202;-65
2021/09/21 07:24:07;;;;;;;0.30;0.20;;;14.90;1.00;;;;;;4992114;28;20207;-65
2021/09/21 07:26:32;;;;;;;0.30;0.20;;;14.70;99.90;;;;;;4994179;28;20190;-65
2021/09/21 07:28:58;;;;;;;0.40;0.10;;;14.70;1.00;;;;;;4994003;28;20576;-65
2021/09/21 07:31:27;;;;;;;0.40;0.20;;;14.80;99.90;;;;;;4993203;28;20535;-65
2021/09/21 07:33:52;;;;;;;0.30;0.20;;;15.00;1.00;;;;;;4994632;28;20185;-64
2021/09/21 07:36:18;;;;;;;0.30;0.20;;;15.20;99.90;;;;;;4992918;28;20556;-65
2021/09/21 07:38:43;;;;;;;0.30;0.10;;;15.10;1.00;;;;;;4993814;28;20241;-65
2021/09/21 07:41:09;;;;;;;0.40;0.20;;;15.40;99.90;;;;;;4994433;28;20198;-65
2021/09/21 07:43:35;;;;;;;0.40;0.20;;;15.50;1.00;;;;;;4993928;28;20202;-65
2021/09/21 07:46:01;;;;;;;0.40;0.10;;;15.50;99.90;;;;;;4993828;28;20237;-65
2021/09/21 07:48:26;;;;;;;0.40;0.20;;;15.50;99.90;;;;;;4992366;28;20186;-66
2021/09/21 07:50:52;;;;;;;0.40;0.20;;;15.40;1.00;;;;;;4994118;28;20182;-66
2021/09/21 07:53:28;;;;;;;0.40;0.20;;;15.20;1.00;;;;;;4997004;28;20182;-68
2021/09/21 07:55:55;;;;;;;0.40;0.10;;;15.10;1.00;;;;;;4997329;28;20226;-68
2021/09/21 07:58:21;;;;;;;0.40;0.17;;;15.30;99.90;;;;;;4995883;28;20179;-65
2021/09/21 08:00:51;;;;;;;0.40;0.20;;;15.40;1.00;;;;;;4993922;28;20233;-65
2021/09/21 08:03:17;;;;;;;0.40;0.20;;;15.40;1.00;;;;;;4993941;28;20624;-65
2021/09/21 08:05:42;;;;;;;0.40;0.20;;;15.40;1.00;;;;;;4993780;28;20179;-65
2021/09/21 08:08:09;;;;;;;1.10;0.60;;;15.30;99.90;;;;;;4993610;28;20505;-65
2021/09/21 08:10:35;;;;;;;0.85;0.85;;;15.40;99.90;;;;;;4992832;28;20175;-65
2021/09/21 08:13:01;;;;;;;0.40;0.10;;;15.50;1.00;;;;;;4993970;28;20507;-66
2021/09/21 08:15:30;;;;;;;0.40;0.10;;;15.60;99.90;;;;;;4994155;28;20202;-66
2021/09/21 08:17:56;;;;;;;0.40;0.20;;;15.70;86.80;;;;;;4992565;28;20197;-65
2021/09/21 08:20:22;;;;;;;0.40;0.20;;;15.70;70.80;;;;;;4993816;28;20613;-66
2021/09/21 08:22:48;;;;;;;0.40;0.20;;;16.00;14.20;;;;;;4989089;28;20215;-66
2021/09/21 08:25:13;;;;;;;0.40;0.20;;;16.10;1.00;;;;;;4983426;28;20527;-66
2021/09/21 08:27:40;;;;;;;0.97;0.97;;;16.10;21.50;;;;;;4983803;28;20269;-67
2021/09/21 08:30:06;;;;;;;0.47;0.35;;;16.20;99.90;;;;;;4984077;28;20756;-67
2021/09/21 08:32:32;;;;;;;0.40;0.20;;;16.00;99.90;;;;;;4989926;28;20179;-66
2021/09/21 08:34:58;;;;;;;0.40;0.20;;;16.00;99.90;;;;;;4994856;28;20418;-67
2021/09/21 08:37:24;;;;;;;0.40;0.20;;;16.00;9.40;;;;;;4994039;28;20221;-66
2021/09/21 08:39:50;;;;;;;0.60;0.50;;;16.30;99.90;;;;;;4997022;28;20175;-66
2021/09/21 08:42:15;;;;;;;0.50;0.40;;;16.40;1.00;;;;;;4991278;28;20191;-66
2021/09/21 08:44:41;;;;;;;0.40;0.20;;;16.20;59.40;;;;;;4978342;28;20207;-66
2021/09/21 08:47:07;;;;;;;0.40;0.20;;;16.10;39.30;;;;;;4976468;28;20179;-68
2021/09/21 08:49:33;;;;;;;0.40;0.10;;;16.10;1.00;;;;;;4977526;28;20187;-66
2021/09/21 08:51:59;;;;;;;0.40;0.20;;;16.10;99.90;;;;;;4977840;28;20680;-68
2021/09/21 08:54:26;;;;;;;0.40;0.10;;;16.30;1.00;;;;;;4977594;28;20191;-67
2021/09/21 08:56:54;;;;;;;0.40;0.20;;;16.40;1.00;;;;;;4977375;28;20453;-65
2021/09/21 08:59:29;;;;;;;0.40;0.20;;;16.60;99.90;;;;;;4977203;28;20467;-65
2021/09/21 09:01:54;;;;;;;0.40;0.10;;;16.40;1.00;;;;;;4977503;28;20919;-66
2021/09/21 09:04:20;;;;;;;0.40;0.20;;;16.30;99.90;;;;;;4977260;28;20226;-68
2021/09/21 09:06:49;;;;;;;0.40;0.10;;;16.30;99.90;;;;;;4977065;28;20696;-66
2021/09/21 09:09:25;;;;;;;0.40;0.20;;;16.40;1.00;;;;;;4977162;28;20183;-65
2021/09/21 09:12:01;;;;;;;0.40;0.10;;;16.10;99.90;;;;;;4978221;28;20525;-65
2021/09/21 09:14:29;;;;;;;0.52;0.52;;;15.50;1.00;;;;;;4977711;28;20494;-67
2021/09/21 09:16:58;;;;;;;0.40;0.20;;;15.40;1.00;;;;;;4977040;28;20620;-66
2021/09/21 09:19:35;;;;;;;0.40;0.20;;;15.50;1.00;;;;;;4995190;28;20510;-67
2021/09/21 09:22:04;;;;;;;1.27;1.17;;;16.00;1.00;;;;;;4996342;28;20214;-66
2021/09/21 09:24:29;;;;;;;0.40;0.20;;;15.90;99.90;;;;;;4996240;28;20242;-66
2021/09/21 09:26:55;;;;;;;0.40;0.17;;;15.50;38.20;;;;;;4996161;28;20206;-66
2021/09/21 09:29:21;;;;;;;0.40;0.20;;;15.40;1.00;;;;;;4996063;28;20517;-66
2021/09/21 09:31:47;;;;;;;0.40;0.20;;;15.00;99.90;;;;;;4996254;28;20241;-66
2021/09/21 09:34:18;;;;;;;0.90;0.30;;;15.00;99.90;;;;;;4996025;28;20183;-66
2021/09/21 09:36:53;;;;;;;0.40;0.10;;;14.80;1.00;;;;;;4995930;28;20191;-65
2021/09/21 09:39:22;;;;;;;0.75;0.65;;;14.80;55.40;;;;;;4995885;28;20175;-65
2021/09/21 09:41:51;;;;;;;0.40;0.15;;;14.80;99.90;;;;;;4996071;28;20179;-65
2021/09/21 09:44:22;;;;;;;0.50;0.30;;;14.90;99.90;;;;;;4995921;28;20213;-65
2021/09/21 09:46:52;;;;;;;0.40;0.28;;;15.30;1.00;;;;;;4995050;28;20228;-65
2021/09/21 09:49:27;;;;;;;0.60;0.40;;;15.70;1.00;;;;;;4995802;28;20187;-65
2021/09/21 09:51:54;;;;;;;0.40;0.20;;;15.90;1.00;;;;;;4995791;28;20185;-65
2021/09/21 09:54:20;;;;;;;0.80;0.57;;;15.90;99.90;;;;;;4995681;28;20434;-65
2021/09/21 09:56:46;;;;;;;0.50;0.30;;;15.70;1.00;;;;;;4995342;28;20240;-67
2021/09/21 09:59:14;;;;;;;0.40;0.30;;;15.80;1.00;;;;;;4994480;28;20517;-67
2021/09/21 10:01:42;;;;;;;0.50;0.40;;;15.80;99.90;;;;;;4994737;28;20198;-65
2021/09/21 10:04:07;;;;;;;0.40;0.20;;;15.80;99.90;;;;;;4994443;28;21149;-65
2021/09/21 10:06:34;;;;;;;0.40;0.20;;;16.00;99.90;;;;;;4995532;28;20674;-68
2021/09/21 10:08:59;;;;;;;0.40;0.20;;;16.10;35.80;;;;;;4995561;28;20285;-65
2021/09/21 10:11:27;;;;;;;1.03;1.03;;;16.60;1.00;;;;;;4995764;28;20508;-68
2021/09/21 10:13:53;;;;;;;0.40;0.20;;;16.70;1.00;;;;;;4994821;28;20194;-65
2021/09/21 10:16:20;;;;;;;0.40;0.20;;;17.10;99.90;;;;;;4995579;28;20432;-65
2021/09/21 10:18:46;;;;;;;0.40;0.20;;;17.40;99.90;;;;;;4995721;28;20461;-65
2021/09/21 10:21:11;;;;;;;0.40;0.20;;;17.70;1.00;;;;;;4995555;28;20918;-66
2021/09/21 10:23:42;;;;;;;0.60;0.30;;;17.50;1.00;;;;;;4995499;28;20206;-66
2021/09/21 10:26:19;;;;;;;0.40;0.20;;;17.50;1.00;;;;;;4995893;28;20183;-66
2021/09/21 10:28:47;;;;;;;0.77;0.77;;;17.80;1.00;;;;;;4995835;28;20577;-65
2021/09/21 10:31:15;;;;;;;1.03;0.50;;;17.40;1.00;;;;;;4995680;28;20441;-68
2021/09/21 10:33:41;;;;;;;0.50;0.30;;;17.50;50.20;;;;;;4995410;28;20445;-65
2021/09/21 10:36:22;;;;;;;0.40;0.20;;;17.80;1.00;;;;;;4995063;28;20891;-66
2021/09/21 10:39:11;;;;;;;1.03;0.40;;;17.80;1.00;;;;;;4994800;28;20179;-66
2021/09/21 10:41:48;;;;;;;0.87;0.87;;;17.90;1.00;;;;;;4995041;28;20457;-67
2021/09/21 10:44:14;;;;;;;0.50;0.30;;;17.80;1.00;;;;;;4994988;28;20465;-67
2021/09/21 10:46:48;;;;;;;1.13;1.13;;;17.70;48.80;;;;;;4994759;28;20500;-65
2021/09/21 10:49:29;;;;;;;0.67;0.33;;;17.60;99.90;;;;;;4994751;28;20190;-65
2021/09/21 10:52:00;;;;;;;0.40;0.20;;;17.50;99.90;;;;;;4994924;28;20418;-68
2021/09/21 10:54:49;;;;;;;0.50;0.47;;;17.60;99.90;;;;;;4994214;28;20464;-66
2021/09/21 10:57:27;;;;;;;0.40;0.10;;;17.60;99.90;;;;;;4994381;28;20887;-66
2021/09/21 10:59:57;;;;;;;1.10;0.67;;;17.60;99.90;;;;;;4994654;28;20523;-68
2021/09/21 11:02:36;;;;;;;0.40;0.23;;;17.60;99.90;;;;;;4994794;28;20433;-65
2021/09/21 11:05:02;;;;;;;2.07;1.50;;;17.50;1.00;;;;;;4994732;28;20484;-65
2021/09/21 11:07:28;;;;;;;0.83;0.57;;;17.40;1.00;;;;;;4994896;28;20436;-65
2021/09/21 11:09:55;;;;;;;0.60;0.57;;;17.40;97.10;;;;;;4994736;28;20422;-64
2021/09/21 11:12:25;;;;;;;0.50;0.20;;;17.30;99.90;;;;;;4994549;28;20175;-68
2021/09/21 11:14:58;;;;;;;0.90;0.60;;;17.40;99.90;;;;;;4995189;28;20463;-67
2021/09/21 11:17:26;;;;;;;0.50;0.40;;;17.50;99.90;;;;;;4995097;28;20525;-67
2021/09/21 11:19:55;;;;;;;0.50;0.47;;;17.50;1.00;;;;;;4993479;28;20953;-69
2021/09/21 11:22:26;;;;;;;0.83;0.70;;;17.90;1.00;;;;;;4994473;28;20425;-67
2021/09/21 11:24:59;;;;;;;0.60;0.30;;;18.10;99.90;;;;;;4993770;28;20484;-69
2021/09/21 11:27:27;;;;;;;0.40;0.20;;;17.80;1.00;;;;;;4993974;28;20784;-66
2021/09/21 11:30:00;;;;;;;0.50;0.40;;;18.00;1.00;;;;;;4993759;28;20422;-66
2021/09/21 11:32:26;;;;;;;0.57;0.57;;;18.10;99.90;;;;;;4994365;28;20914;-66
2021/09/21 11:35:01;;;;;;;0.50;0.30;;;18.00;1.00;;;;;;4994807;28;20907;-66
2021/09/21 11:37:27;;;;;;;0.43;0.23;;;17.80;19.40;;;;;;4994141;28;20435;-67
2021/09/21 11:39:54;;;;;;;1.13;1.03;;;17.60;99.90;;;;;;4994019;28;20509;-66
2021/09/21 11:42:22;;;;;;;0.40;0.20;;;17.60;99.90;;;;;;4993228;28;20435;-67
2021/09/21 11:44:47;;;;;;;1.90;1.70;;;17.80;99.90;;;;;;4993918;28;20476;-67
2021/09/21 11:47:13;;;;;;;0.40;0.20;;;17.90;99.90;;;;;;4993898;28;20414;-67
2021/09/21 11:49:38;;;;;;;0.60;0.53;;;17.90;99.90;;;;;;4992849;28;20195;-68
2021/09/21 11:52:05;;;;;;;0.50;0.40;;;18.00;99.90;;;;;;4994013;28;20518;-66
2021/09/21 11:54:31;;;;;;;1.20;0.90;;;18.10;99.90;;;;;;4993858;28;20261;-66
2021/09/21 11:56:57;;;;;;;0.40;0.20;;;17.80;99.90;;;;;;4994276;28;20998;-68
2021/09/21 11:59:23;;;;;;;0.70;0.63;;;17.90;99.90;;;;;;4993757;28;20805;-69
2021/09/21 12:01:51;;;;;;;0.50;0.30;;;18.00;99.90;;;;;;4993158;28;20430;-69
2021/09/21 12:04:17;;;;;;;0.40;0.30;;;17.90;1.00;;;;;;4993860;28;20203;-69
2021/09/21 12:06:44;;;;;;;0.40;0.20;;;17.50;99.90;;;;;;4993476;28;20426;-69
2021/09/21 12:09:11;;;;;;;0.50;0.30;;;17.50;78.70;;;;;;4993726;28;20643;-69
2021/09/21 12:11:42;;;;;;;0.70;0.47;;;17.40;1.00;;;;;;4997656;28;20420;-68
2021/09/21 12:14:07;;;;;;;0.90;0.47;;;17.40;1.00;;;;;;4997508;28;20432;-66
2021/09/21 12:16:34;;;;;;;1.13;1.03;;;17.40;97.80;;;;;;4997598;28;20433;-66
2021/09/21 12:19:00;;;;;;;3.23;0.77;;;17.40;99.90;;;;;;4997521;28;20189;-68
2021/09/21 12:21:29;;;;;;;1.17;1.07;;;17.40;99.90;;;;;;4998145;28;21066;-67
2021/09/21 12:23:54;;;;;;;0.87;0.60;;;17.20;99.90;;;;;;4997923;28;20540;-67
2021/09/21 12:26:22;;;;;;;0.80;0.40;;;17.40;1.00;;;;;;4997451;28;20464;-66
2021/09/21 12:28:51;;;;;;;0.47;0.23;;;17.40;1.00;;;;;;4997240;28;20207;-68
2021/09/21 12:31:26;;;;;;;1.40;1.30;;;17.40;99.90;;;;;;4998124;28;20513;-68
2021/09/21 12:33:53;;;;;;;0.40;0.20;;;17.40;1.00;;;;;;4997573;28;20436;-66
2021/09/21 12:36:25;;;;;;;0.77;0.50;;;17.70;1.00;;;;;;4997643;28;20483;-66
2021/09/21 12:39:09;;;;;;;0.70;0.30;;;18.10;1.00;;;;;;4997507;28;20433;-65
2021/09/21 12:41:50;;;;;;;0.40;0.20;;;18.10;99.90;;;;;;4997895;28;20499;-65
2021/09/21 12:44:21;;;;;;;0.60;0.47;;;18.20;1.00;;;;;;4998259;28;20461;-65
2021/09/21 12:46:49;;;;;;;0.90;0.60;;;18.10;99.90;;;;;;4997589;28;20422;-66
2021/09/21 12:49:17;;;;;;;0.60;0.20;;;18.10;99.90;;;;;;4997479;28;20452;-68
2021/09/21 12:51:51;;;;;;;0.40;0.20;;;18.20;99.90;;;;;;4997619;28;20421;-65
2021/09/21 12:54:19;;;;;;;0.87;0.87;;;18.10;99.90;;;;;;4997745;28;20425;-66
2021/09/21 12:56:47;;;;;;;1.23;1.13;;;18.20;99.90;;;;;;4997305;28;20512;-68
2021/09/21 12:59:16;;;;;;;0.97;0.73;;;18.40;1.00;;;;;;4996968;28;20708;-66
2021/09/21 13:01:44;;;;;;;0.40;0.20;;;18.50;1.00;;;;;;4997350;28;20417;-66